Time;durP1;ratioP1;P1;durP2;ratioP2;P2;SDS_P1;SDS_P2;PMS_P1;PMS_P2;Temp;Humidity;BMP_temperature;BMP_pressure;BME280_temperature;BME280_humidity;BME280_pressure;Samples;Min_cycle;Max_cycle;Signal;HPM_P1;HPM_P2
2022/04/02 00:02:22;;;;;;;6.53;2.20;;;;;;;8.67;100.00;93307.63;5091529;28;20994;-53
2022/04/02 00:04:49;;;;;;;6.65;2.35;;;;;;;8.70;100.00;93301.94;5091617;28;20051;-50
2022/04/02 00:07:15;;;;;;;5.82;2.53;;;;;;;8.75;100.00;93294.13;5092267;28;20036;-49
2022/04/02 00:09:43;;;;;;;6.78;2.55;;;;;;;8.78;100.00;93304.00;5090986;28;20036;-50
2022/04/02 00:12:09;;;;;;;5.82;1.65;;;;;;;8.80;100.00;93297.53;5091076;28;20508;-50
2022/04/02 00:14:36;;;;;;;8.60;2.13;;;;;;;8.77;100.00;93312.84;5090768;28;20044;-50
2022/04/02 00:17:03;;;;;;;16.30;4.50;;;;;;;8.77;100.00;93312.84;5090500;28;20055;-47
2022/04/02 00:19:31;;;;;;;4.53;1.80;;;;;;;8.75;100.00;93314.91;5093046;28;20048;-48
2022/04/02 00:21:58;;;;;;;10.93;1.85;;;;;;;8.76;100.00;93316.47;5091801;28;20051;-48
2022/04/02 00:24:25;;;;;;;12.45;2.80;;;;;;;8.76;100.00;93311.28;5092832;28;20455;-51
2022/04/02 00:26:52;;;;;;;5.80;2.13;;;;;;;8.71;100.00;93313.84;5092055;28;20067;-48
2022/04/02 00:29:19;;;;;;;4.78;1.55;;;;;;;8.73;100.00;93322.16;5090018;28;20060;-51
2022/04/02 00:31:47;;;;;;;7.63;1.83;;;;;;;8.67;100.00;93318.78;5068839;28;20044;-47
2022/04/02 00:34:13;;;;;;;5.70;2.03;;;;;;;8.64;100.00;93318.50;5091732;28;20051;-46
2022/04/02 00:36:40;;;;;;;10.43;2.50;;;;;;;8.60;100.00;93323.44;5068949;28;20035;-47
2022/04/02 00:39:08;;;;;;;2.80;1.88;;;;;;;8.60;100.00;93319.00;5091591;28;20478;-50
2022/04/02 00:41:35;;;;;;;7.90;1.40;;;;;;;8.57;100.00;93319.53;5069947;28;20052;-46
2022/04/02 00:44:10;;;;;;;8.07;2.30;;;;;;;8.49;100.00;93312.22;5091372;28;20142;-48
2022/04/02 00:46:39;;;;;;;6.00;2.17;;;;;;;8.39;100.00;93319.94;5090961;28;20040;-48
2022/04/02 00:49:08;;;;;;;5.75;1.83;;;;;;;8.39;100.00;93323.34;5091565;28;20079;-49
2022/04/02 00:51:42;;;;;;;12.18;2.38;;;;;;;8.45;100.00;93337.13;5089300;28;20043;-47
2022/04/02 00:54:14;;;;;;;11.02;1.85;;;;;;;8.48;100.00;93351.41;5089155;28;20482;-49
2022/04/02 00:56:42;;;;;;;10.35;1.42;;;;;;;8.45;100.00;93342.31;5068011;28;20048;-48
2022/04/02 00:59:10;;;;;;;3.35;1.70;;;;;;;8.45;100.00;93336.38;5092834;28;20548;-49
2022/04/02 01:01:37;;;;;;;5.72;2.60;;;;;;;8.40;100.00;93339.69;5091470;28;20056;-47
2022/04/02 01:04:08;;;;;;;8.45;1.73;;;;;;;8.39;100.00;93327.72;5070879;28;20043;-46
2022/04/02 01:06:41;;;;;;;5.80;1.23;;;;;;;8.53;100.00;93328.84;5067140;28;20424;-49
2022/04/02 01:09:13;;;;;;;6.15;1.60;;;;;;;8.52;100.00;93326.53;5092551;28;20424;-47
2022/04/02 01:11:43;;;;;;;1.75;1.15;;;;;;;8.44;100.00;93314.03;5070807;28;20490;-46
2022/04/02 01:14:11;;;;;;;15.57;1.55;;;;;;;8.41;100.00;93315.31;5075567;28;20104;-46
2022/04/02 01:16:42;;;;;;;1.63;1.00;;;;;;;8.43;100.00;93315.84;5068337;28;20131;-47
2022/04/02 01:19:16;;;;;;;5.63;2.90;;;;;;;8.39;100.00;93323.34;5069662;28;20493;-47
2022/04/02 01:21:47;;;;;;;4.55;1.38;;;;;;;8.44;100.00;93325.19;5070515;28;20057;-50
2022/04/02 01:24:34;;;;;;;7.15;1.23;;;;;;;8.42;100.00;93335.81;5071167;28;20105;-49
2022/04/02 01:27:00;;;;;;;1.65;0.85;;;;;;;8.36;100.00;93328.25;5091733;28;20481;-52
2022/04/02 01:29:35;;;;;;;2.35;1.45;;;;;;;8.36;100.00;93336.03;5072995;28;20063;-45
2022/04/02 01:32:07;;;;;;;2.78;0.80;;;;;;;8.36;100.00;93338.63;5071665;28;20044;-48
2022/04/02 01:34:34;;;;;;;1.42;1.10;;;;;;;8.36;100.00;93343.81;5070390;28;20059;-51
2022/04/02 01:37:16;;;;;;;4.57;0.90;;;;;;;8.38;100.00;93363.28;5068412;28;20073;-53
2022/04/02 01:39:48;;;;;;;3.13;0.40;;;;;;;8.60;100.00;93352.75;5068173;28;20145;-49
2022/04/02 01:42:21;;;;;;;2.80;0.45;;;;;;;8.74;100.00;93360.06;5069750;28;20049;-48
2022/04/02 01:44:56;;;;;;;2.30;1.17;;;;;;;8.89;98.47;93372.31;5088809;28;20055;-46
2022/04/02 01:47:35;;;;;;;1.20;0.63;;;;;;;9.00;97.88;93366.09;5071397;28;20040;-48
2022/04/02 01:50:05;;;;;;;0.88;0.60;;;;;;;9.02;98.28;93365.84;5089949;28;20101;-47
2022/04/02 01:52:37;;;;;;;1.25;0.60;;;;;;;8.89;99.52;93362.69;5068363;28;20067;-47
2022/04/02 01:55:08;;;;;;;0.70;0.50;;;;;;;8.87;99.13;93359.59;5069395;28;20047;-49
2022/04/02 01:57:38;;;;;;;2.03;0.43;;;;;;;8.81;98.67;93371.00;5090496;28;20404;-47
2022/04/02 02:00:10;;;;;;;3.13;0.98;;;;;;;8.65;99.32;93371.97;5069782;28;20536;-52
2022/04/02 02:02:40;;;;;;;2.20;0.95;;;;;;;8.49;99.24;93364.13;5090846;28;20048;-47
2022/04/02 02:05:09;;;;;;;2.50;0.77;;;;;;;8.39;99.61;93364.03;5072521;28;20101;-47
2022/04/02 02:07:36;;;;;;;5.45;0.80;;;;;;;8.34;99.97;93371.81;5091836;28;20039;-47
2022/04/02 02:10:04;;;;;;;2.05;0.68;;;;;;;8.27;100.00;93376.47;5089013;28;20040;-49
2022/04/02 02:12:49;;;;;;;0.80;0.50;;;;;;;8.29;100.00;93376.97;5089036;28;20050;-46
2022/04/02 02:15:23;;;;;;;2.15;0.50;;;;;;;8.33;98.99;93385.81;5068648;28;20075;-46
2022/04/02 02:17:57;;;;;;;2.30;0.93;;;;;;;8.27;99.51;93373.88;5070896;28;20051;-48
2022/04/02 02:20:24;;;;;;;3.83;0.90;;;;;;;8.34;99.44;93382.19;5065511;28;20044;-46
2022/04/02 02:22:51;;;;;;;2.00;0.60;;;;;;;8.34;99.26;93384.78;5070742;28;20568;-47
2022/04/02 02:25:18;;;;;;;1.10;0.50;;;;;;;8.38;98.65;93383.25;5090575;28;20040;-49
2022/04/02 02:27:48;;;;;;;3.13;0.68;;;;;;;8.34;99.20;93377.00;5069146;28;20036;-48
2022/04/02 02:30:18;;;;;;;3.22;0.70;;;;;;;8.21;99.74;93373.84;5071436;28;20109;-46
2022/04/02 02:32:47;;;;;;;1.42;0.40;;;;;;;8.22;100.00;93385.75;5067874;28;20508;-46
2022/04/02 02:38:12;;;;;;;1.55;0.57;;;;;;;8.13;100.00;93374.28;5087598;28;20075;-48
2022/04/02 02:40:48;;;;;;;1.60;0.30;;;;;;;8.13;100.00;93387.25;5089284;28;20047;-45
2022/04/02 02:43:22;;;;;;;10.23;0.57;;;;;;;8.09;100.00;93391.41;5067938;28;20109;-49
2022/04/02 02:45:50;;;;;;;3.60;0.70;;;;;;;8.01;100.00;93368.50;5087544;28;20047;-45
2022/04/02 02:48:17;;;;;;;3.10;2.00;;;;;;;8.06;100.00;93381.50;5084857;28;20040;-48
2022/04/02 02:50:50;;;;;;;1.25;0.47;;;;;;;8.10;100.00;93374.78;5087346;28;20047;-48
2022/04/02 02:53:18;;;;;;;1.40;0.45;;;;;;;8.11;99.95;93376.38;5066467;28;20075;-47
2022/04/02 02:55:48;;;;;;;1.52;0.60;;;;;;;8.07;100.00;93385.69;5089476;28;20618;-47
2022/04/02 02:58:16;;;;;;;2.00;0.60;;;;;;;8.04;100.00;93393.94;5089517;28;20489;-48
2022/04/02 03:00:43;;;;;;;0.73;0.40;;;;;;;8.00;100.00;93388.47;5068611;28;20043;-46
2022/04/02 03:03:17;;;;;;;0.70;0.30;;;;;;;7.97;100.00;93386.38;5067207;28;20063;-46
2022/04/02 03:05:47;;;;;;;1.23;0.50;;;;;;;7.95;100.00;93395.44;5086928;28;20130;-46
2022/04/02 03:08:16;;;;;;;1.02;0.93;;;;;;;7.92;100.00;93390.75;5068973;28;20043;-52
2022/04/02 03:11:09;;;;;;;2.22;0.52;;;;;;;7.85;100.00;93385.81;5087423;28;20052;-49
2022/04/02 03:13:38;;;;;;;0.73;0.43;;;;;;;7.78;100.00;93391.19;5081519;28;20048;-49
2022/04/02 03:16:07;;;;;;;1.23;0.60;;;;;;;7.73;100.00;93403.34;5065495;28;20578;-47
2022/04/02 03:18:41;;;;;;;3.30;0.57;;;;;;;7.73;100.00;93401.50;5083405;28;20121;-49
2022/04/02 03:21:13;;;;;;;3.42;0.40;;;;;;;7.73;100.00;93404.09;5068230;28;20048;-49
2022/04/02 03:23:40;;;;;;;0.35;0.22;;;;;;;7.74;100.00;93390.13;5068695;28;20478;-50
2022/04/02 03:26:07;;;;;;;1.50;0.57;;;;;;;7.76;100.00;93382.88;5068166;28;20047;-51
2022/04/02 03:28:38;;;;;;;2.53;0.60;;;;;;;7.78;100.00;93382.66;5069547;28;20044;-49
2022/04/02 03:31:05;;;;;;;4.18;1.00;;;;;;;7.90;100.00;93382.44;5067931;28;20055;-49
2022/04/02 03:33:35;;;;;;;5.15;0.68;;;;;;;7.91;100.00;93389.22;5067072;28;20051;-48
2022/04/02 03:36:04;;;;;;;1.17;0.30;;;;;;;7.87;100.00;93388.13;5087950;28;20118;-50
2022/04/02 03:38:31;;;;;;;0.68;0.45;;;;;;;7.83;100.00;93390.44;5068019;28;20052;-46
2022/04/02 03:41:04;;;;;;;1.42;0.93;;;;;;;7.96;99.17;93407.38;5066245;28;20130;-47
2022/04/02 03:43:32;;;;;;;1.85;0.40;;;;;;;7.95;99.63;93405.81;5088801;28;20054;-49
2022/04/02 03:48:46;;;;;;;3.05;0.30;;;;;;;7.85;99.95;93412.50;5087608;28;20052;-51
2022/04/02 03:51:13;;;;;;;0.95;0.40;;;;;;;7.87;99.40;93408.84;5067170;28;20101;-52
2022/04/02 03:53:46;;;;;;;1.13;0.38;;;;;;;7.83;98.86;93403.38;5088102;28;20048;-51
2022/04/02 03:56:14;;;;;;;0.63;0.43;;;;;;;7.90;97.18;93409.16;5065582;28;20051;-45
2022/04/02 03:58:50;;;;;;;1.58;0.60;;;;;;;7.96;97.25;93428.09;5073971;28;20039;-47
2022/04/02 04:01:17;;;;;;;0.45;0.40;;;;;;;8.05;96.04;93437.00;5076092;28;20040;-50
2022/04/02 04:03:45;;;;;;;1.50;0.50;;;;;;;8.21;95.22;93433.50;5071322;28;20089;-49
2022/04/02 04:06:12;;;;;;;1.48;0.93;;;;;;;8.25;94.83;93426.00;5073456;28;20056;-50
2022/04/02 04:08:40;;;;;;;1.65;0.43;;;;;;;8.23;95.29;93418.44;5093985;28;20097;-47
2022/04/02 04:11:08;;;;;;;0.40;0.15;;;;;;;8.23;95.44;93428.81;5078144;28;20032;-49
2022/04/02 04:13:37;;;;;;;3.17;0.75;;;;;;;8.17;94.91;93419.44;5094484;28;20402;-51
2022/04/02 04:16:07;;;;;;;1.85;0.55;;;;;;;8.27;94.98;93433.53;5072660;28;20044;-48
2022/04/02 04:18:36;;;;;;;3.22;0.70;;;;;;;8.26;94.41;93421.56;5069927;28;20043;-50
2022/04/02 04:21:04;;;;;;;0.47;0.40;;;;;;;8.23;93.49;93418.44;5088209;28;20108;-49
2022/04/02 04:23:32;;;;;;;0.95;0.40;;;;;;;8.31;93.54;93431.97;5090927;28;20044;-50
2022/04/02 04:26:01;;;;;;;0.20;0.10;;;;;;;8.39;92.27;93423.72;5066986;28;20500;-46
2022/04/02 04:28:34;;;;;;;0.55;0.43;;;;;;;8.45;92.50;93430.53;5070089;28;20048;-48
2022/04/02 04:31:01;;;;;;;6.55;2.08;;;;;;;8.47;92.35;93438.84;5088210;28;20047;-51
2022/04/02 04:33:28;;;;;;;0.88;0.50;;;;;;;8.52;92.65;93451.84;5089111;28;20043;-50
2022/04/02 04:35:57;;;;;;;2.08;0.50;;;;;;;8.51;92.69;93452.09;5089470;28;20036;-50
2022/04/02 04:38:25;;;;;;;0.90;0.57;;;;;;;8.50;93.07;93468.69;5070399;28;20044;-47
2022/04/02 04:40:53;;;;;;;3.13;0.57;;;;;;;8.52;92.31;93469.25;5089330;28;20055;-50
2022/04/02 04:43:22;;;;;;;3.53;0.63;;;;;;;8.55;92.89;93473.91;5069734;28;20870;-50
2022/04/02 04:45:49;;;;;;;1.42;0.85;;;;;;;8.57;91.62;93464.88;5093312;28;20039;-51
2022/04/02 04:48:20;;;;;;;11.07;4.28;;;;;;;8.60;92.14;93469.53;5067869;28;20043;-49
2022/04/02 04:50:52;;;;;;;4.63;2.30;;;;;;;8.65;92.40;93481.75;5070976;28;20501;-46
2022/04/02 04:53:20;;;;;;;20.30;7.50;;;;;;;8.67;91.68;93476.34;5109905;27;20054;-49
2022/04/02 04:55:48;;;;;;;4.15;1.90;;;;;;;8.74;90.87;93489.88;5072323;28;20101;-51
2022/04/02 04:58:19;;;;;;;3.75;1.60;;;;;;;8.85;90.15;93490.69;5072031;28;20109;-48
2022/04/02 05:00:47;;;;;;;3.75;0.82;;;;;;;8.89;89.34;93482.13;5070215;28;20048;-50
2022/04/02 05:03:14;;;;;;;3.15;1.10;;;;;;;8.98;89.06;93491.03;5068695;28;20040;-47
2022/04/02 05:05:46;;;;;;;1.88;1.30;;;;;;;9.10;87.22;93487.44;5086353;28;20097;-48
2022/04/02 05:08:19;;;;;;;2.83;1.85;;;;;;;9.10;87.62;93466.66;5070269;28;20555;-50
2022/04/02 05:10:47;;;;;;;2.03;0.52;;;;;;;9.24;87.77;93482.53;5067952;28;20129;-51
2022/04/02 05:13:29;;;;;;;2.47;0.80;;;;;;;9.23;86.63;93486.94;5086943;28;20048;-47
2022/04/02 05:15:57;;;;;;;3.75;0.47;;;;;;;9.41;86.12;93492.72;5067921;28;20035;-48
2022/04/02 05:18:26;;;;;;;1.58;0.70;;;;;;;9.56;84.37;93495.34;5067457;28;20547;-48
2022/04/02 05:20:53;;;;;;;3.35;0.82;;;;;;;9.62;83.15;93509.94;5070553;28;20532;-48
2022/04/02 05:23:21;;;;;;;3.42;0.52;;;;;;;9.73;82.96;93503.72;5066651;28;20048;-48
2022/04/02 05:25:51;;;;;;;1.95;0.70;;;;;;;9.84;83.11;93501.13;5089093;28;20048;-48
2022/04/02 05:28:21;;;;;;;7.85;2.05;;;;;;;9.94;83.70;93491.53;5089418;28;20051;-51
2022/04/02 05:30:48;;;;;;;7.70;2.72;;;;;;;10.04;82.85;93495.94;5069936;28;20509;-47
2022/04/02 05:33:15;;;;;;;12.10;4.43;;;;;;;10.11;83.20;93493.84;5093936;28;20094;-48
2022/04/02 05:36:02;;;;;;;5.78;2.35;;;;;;;10.22;84.90;93496.47;5091365;28;20513;-45
2022/04/02 05:38:30;;;;;;;2.78;0.85;;;;;;;10.26;83.29;93502.72;5070615;28;20454;-47
2022/04/02 05:40:57;;;;;;;2.30;0.73;;;;;;;10.31;83.59;93526.16;5090726;28;20051;-49
2022/04/02 05:43:24;;;;;;;2.20;1.00;;;;;;;10.39;82.97;93525.66;5070342;28;20049;-48
2022/04/02 05:45:50;;;;;;;10.63;4.40;;;;;;;10.45;79.42;93522.00;5068232;28;20429;-50
2022/04/02 05:48:20;;;;;;;10.73;4.00;;;;;;;10.56;79.64;93527.19;5089667;28;20134;-46
2022/04/02 05:50:47;;;;;;;2.80;1.38;;;;;;;10.55;79.01;93530.84;5090635;28;20043;-48
2022/04/02 05:53:14;;;;;;;2.63;1.55;;;;;;;10.67;79.13;93533.94;5091986;28;20401;-48
2022/04/02 05:55:42;;;;;;;8.30;2.13;;;;;;;10.68;78.58;93536.28;5090210;28;20043;-46
2022/04/02 05:58:12;;;;;;;10.70;2.72;;;;;;;10.76;79.25;93542.78;5091192;28;20040;-45
2022/04/02 06:00:39;;;;;;;4.47;1.27;;;;;;;10.87;78.03;93541.72;5091970;28;20044;-50
2022/04/02 06:03:07;;;;;;;8.80;2.00;;;;;;;10.95;77.26;93545.63;5089842;28;20055;-52
2022/04/02 06:05:35;;;;;;;1.60;0.63;;;;;;;11.05;75.86;93529.19;5092072;28;20080;-51
2022/04/02 06:08:02;;;;;;;1.15;0.73;;;;;;;11.10;78.04;93553.38;5089858;28;20048;-47
2022/04/02 06:10:29;;;;;;;1.23;0.38;;;;;;;11.21;76.28;93535.91;5091371;28;20040;-50
2022/04/02 06:12:55;;;;;;;2.22;0.77;;;;;;;11.31;76.57;93536.91;5090033;28;20052;-47
2022/04/02 06:15:24;;;;;;;3.25;0.60;;;;;;;11.44;75.45;93536.34;5091733;28;20771;-52
2022/04/02 06:17:51;;;;;;;1.52;0.85;;;;;;;11.58;74.61;93542.53;5090241;28;20051;-47
2022/04/02 06:20:19;;;;;;;0.93;0.40;;;;;;;11.78;76.14;93540.88;5091025;28;20052;-46
2022/04/02 06:22:45;;;;;;;4.00;0.77;;;;;;;11.99;71.86;93547.56;5092113;28;20063;-47
2022/04/02 06:25:12;;;;;;;1.50;0.50;;;;;;;12.27;70.62;93562.78;5089632;28;20047;-46
2022/04/02 06:27:43;;;;;;;1.33;0.50;;;;;;;12.48;69.08;93563.41;5088922;28;20039;-48
2022/04/02 06:30:15;;;;;;;1.65;0.20;;;;;;;12.57;68.07;93559.19;5089082;28;20051;-46
2022/04/02 06:32:42;;;;;;;1.17;0.38;;;;;;;12.68;65.76;93560.66;5089250;28;20036;-48
2022/04/02 06:35:10;;;;;;;1.90;0.52;;;;;;;12.82;65.14;93553.72;5087722;28;20048;-48
2022/04/02 06:37:39;;;;;;;2.05;0.30;;;;;;;13.04;64.12;93573.38;5071832;28;20978;-47
2022/04/02 06:40:11;;;;;;;0.43;0.30;;;;;;;13.27;66.67;93568.44;5091422;28;20052;-50
2022/04/02 06:42:38;;;;;;;3.80;1.30;;;;;;;13.49;63.24;93571.38;5091222;28;20071;-48
2022/04/02 06:45:12;;;;;;;;;;;;;;;13.67;61.41;93569.06;5070884;28;20052;-50
2022/04/02 06:47:40;;;;;;;0.73;0.20;;;;;;;13.76;57.92;93577.84;5090436;28;19993;-47
2022/04/02 06:50:10;;;;;;;1.98;0.68;;;;;;;13.92;58.51;93576.59;5079287;28;20048;-50
2022/04/02 06:52:38;;;;;;;1.17;0.30;;;;;;;13.95;55.55;93562.97;5086549;28;20406;-48
2022/04/02 06:55:08;;;;;;;3.90;0.32;;;;;;;13.99;55.99;93562.38;5086090;28;21083;-48
2022/04/02 06:57:56;;;;;;;0.65;0.22;;;;;;;14.23;56.23;93563.09;5087206;28;20517;-52
2022/04/02 07:00:24;;;;;;;0.88;0.35;;;;;;;14.45;57.85;93564.34;5089060;28;20098;-50
2022/04/02 07:02:51;;;;;;;1.25;0.32;;;;;;;14.63;53.80;93571.41;5090234;28;20047;-50
2022/04/02 07:05:19;;;;;;;0.73;0.35;;;;;;;14.82;54.22;93562.72;5090022;28;20093;-48
2022/04/02 07:07:46;;;;;;;1.13;0.45;;;;;;;14.83;53.25;93569.53;5087818;28;20059;-47
2022/04/02 07:10:13;;;;;;;3.65;0.38;;;;;;;14.71;53.81;93562.91;5090229;28;20069;-52
2022/04/02 07:12:40;;;;;;;0.95;0.40;;;;;;;14.80;52.37;93559.59;5091447;28;20048;-46
2022/04/02 07:15:07;;;;;;;0.65;0.20;;;;;;;14.75;51.52;93567.56;5090770;28;20040;-49
2022/04/02 07:17:34;;;;;;;1.95;0.40;;;;;;;14.69;51.04;93565.03;5087486;28;20138;-47
2022/04/02 07:20:03;;;;;;;1.02;0.20;;;;;;;14.76;50.56;93574.38;5088067;28;20051;-50
2022/04/02 07:22:30;;;;;;;0.57;0.20;;;;;;;14.87;47.12;93575.75;5085229;28;20707;-52
2022/04/02 07:24:57;;;;;;;0.73;0.20;;;;;;;14.80;46.21;93576.13;5086288;28;20044;-48
2022/04/02 07:27:27;;;;;;;1.27;0.52;;;;;;;14.82;47.79;93578.44;5091625;28;20051;-50
2022/04/02 07:29:56;;;;;;;1.05;0.73;;;;;;;14.97;49.77;93583.44;5092473;28;20113;-49
2022/04/02 07:32:23;;;;;;;1.90;0.50;;;;;;;15.12;45.67;93589.50;5093474;28;20055;-47
2022/04/02 07:34:50;;;;;;;1.88;0.90;;;;;;;15.23;46.04;93594.28;5093740;28;20039;-47
2022/04/02 07:37:52;;;;;;;2.35;0.65;;;;;;;15.20;42.68;93594.09;5092602;28;20456;-50
2022/04/02 07:40:25;;;;;;;1.13;0.60;;;;;;;15.34;44.46;93597.50;5091256;28;20032;-48
2022/04/02 07:43:04;;;;;;;0.75;0.45;;;;;;;15.75;43.14;93604.59;5092350;28;21955;-48
2022/04/02 07:45:37;;;;;;;2.08;0.90;;;;;;;15.81;40.16;93597.41;5094208;28;20789;-52
2022/04/02 07:48:08;;;;;;;3.70;0.20;;;;;;;16.01;39.80;93612.75;5093920;28;20048;-51
2022/04/02 07:50:35;;;;;;;0.93;0.40;;;;;;;15.88;41.31;93604.88;5090592;28;20051;-45
2022/04/02 07:53:08;;;;;;;7.75;3.58;;;;;;;15.98;41.15;93612.56;5094415;28;20897;-50
2022/04/02 07:55:39;;;;;;;1.40;0.60;;;;;;;15.88;37.75;93607.53;5071761;28;20047;-51
2022/04/02 07:58:09;;;;;;;1.92;0.60;;;;;;;16.03;38.89;93609.84;5092299;28;20104;-49
2022/04/02 08:00:37;;;;;;;1.63;0.80;;;;;;;16.01;40.32;93612.00;5092785;28;20052;-49
2022/04/02 08:03:08;;;;;;;1.45;0.40;;;;;;;16.06;40.34;93603.97;5092995;28;20055;-48
2022/04/02 08:05:35;;;;;;;2.80;1.50;;;;;;;16.32;42.49;93606.09;5094229;28;20047;-50
2022/04/02 08:08:07;;;;;;;1.55;0.80;;;;;;;16.15;41.41;93607.50;5088388;28;20049;-47
2022/04/02 08:10:39;;;;;;;0.60;0.30;;;;;;;15.66;42.57;93606.34;5070044;28;20040;-46
2022/04/02 08:13:07;;;;;;;1.50;0.52;;;;;;;15.37;42.67;93593.50;5094399;28;20409;-47
2022/04/02 08:15:37;;;;;;;1.70;0.55;;;;;;;15.13;44.17;93599.69;5074590;28;20055;-49
2022/04/02 08:18:08;;;;;;;2.17;0.68;;;;;;;14.91;43.50;93598.47;5071457;28;20040;-48
2022/04/02 08:20:36;;;;;;;0.80;0.38;;;;;;;14.85;45.33;93606.72;5093106;28;20063;-49
2022/04/02 08:23:03;;;;;;;1.48;0.52;;;;;;;14.97;47.03;93614.91;5091770;28;20548;-51
2022/04/02 08:25:39;;;;;;;6.43;0.90;;;;;;;15.17;46.11;93605.91;5087988;28;20086;-52
2022/04/02 08:28:31;;;;;;;6.43;0.60;;;;;;;15.46;40.94;93608.28;5092899;28;20048;-47
2022/04/02 08:31:22;;;;;;;0.85;0.30;;;;;;;15.56;40.30;93598.69;5092237;28;20047;-50
2022/04/02 08:34:13;;;;;;;0.45;0.17;;;;;;;15.56;39.92;93598.69;5091647;28;20097;-47
2022/04/02 08:36:48;;;;;;;2.58;0.30;;;;;;;15.72;40.99;93589.44;5092327;28;20459;-49
2022/04/02 08:39:43;;;;;;;0.30;0.25;;;;;;;15.73;40.24;93590.97;5093656;28;20418;-48
2022/04/02 08:42:40;;;;;;;1.58;0.47;;;;;;;15.67;43.12;93586.91;5093388;28;20059;-48
2022/04/02 08:45:09;;;;;;;2.38;0.40;;;;;;;15.70;44.02;93575.84;5092582;28;21227;-52
2022/04/02 08:47:58;;;;;;;2.78;0.30;;;;;;;15.65;42.39;93594.28;5093574;28;20111;-48
2022/04/02 08:50:34;;;;;;;1.55;0.45;;;;;;;15.63;42.43;93596.44;5090591;28;20059;-46
2022/04/02 08:53:34;;;;;;;0.85;0.47;;;;;;;15.57;42.57;93608.84;5093243;28;20063;-50
2022/04/02 08:56:05;;;;;;;4.50;0.43;;;;;;;15.66;42.32;93616.84;5091393;28;20048;-49
2022/04/02 08:58:34;;;;;;;1.48;0.35;;;;;;;15.79;39.32;93621.34;5093163;28;20051;-49
2022/04/02 09:01:03;;;;;;;1.73;0.65;;;;;;;15.91;40.54;93617.44;5092243;28;20467;-50
2022/04/02 09:03:51;;;;;;;3.30;0.40;;;;;;;16.03;41.53;93615.88;5091415;28;20047;-53
2022/04/02 09:06:39;;;;;;;3.30;0.63;;;;;;;16.31;37.79;93604.53;5091490;28;20124;-47
2022/04/02 09:09:32;;;;;;;3.00;1.27;;;;;;;16.38;37.74;93610.16;5091553;28;20032;-47
2022/04/02 09:12:20;;;;;;;0.60;0.40;;;;;;;16.15;37.47;93610.13;5053961;28;20056;-47
2022/04/02 09:15:09;;;;;;;1.13;0.60;;;;;;;16.05;36.90;93605.06;5092057;28;20040;-49
2022/04/02 09:17:37;;;;;;;0.82;0.35;;;;;;;16.20;36.15;93599.47;5092098;28;20109;-49
2022/04/02 09:20:13;;;;;;;1.42;0.40;;;;;;;16.46;36.48;93608.66;5091231;28;20036;-50
2022/04/02 09:23:02;;;;;;;1.10;0.82;;;;;;;16.47;33.24;93592.59;5068654;28;20052;-51
2022/04/02 09:25:31;;;;;;;0.45;0.32;;;;;;;15.79;35.27;93605.59;5091515;28;20040;-48
2022/04/02 09:28:39;;;;;;;1.60;0.50;;;;;;;15.58;36.33;93609.66;5091565;28;20104;-50
2022/04/02 09:31:44;;;;;;;3.65;1.20;;;;;;;15.42;36.29;93617.78;5090146;28;20425;-51
2022/04/02 09:34:14;;;;;;;;;;;;;;;15.54;38.13;93608.66;5076185;28;20064;-47
2022/04/02 09:37:04;;;;;;;1.42;0.77;;;;;;;15.60;37.45;93625.88;5090693;28;20427;-51
2022/04/02 09:39:54;;;;;;;2.10;1.10;;;;;;;15.21;37.98;93621.84;5090099;28;20035;-49
2022/04/02 09:42:43;;;;;;;2.72;1.05;;;;;;;15.21;38.76;93622.63;5092301;28;20093;-47
2022/04/02 09:45:12;;;;;;;1.98;1.10;;;;;;;15.26;38.92;93629.63;5090752;28;20132;-50
2022/04/02 09:47:42;;;;;;;5.72;3.08;;;;;;;15.42;37.42;93617.78;5090809;28;20189;-48
2022/04/02 09:50:16;;;;;;;4.95;1.70;;;;;;;15.62;37.14;93619.25;5086094;28;20555;-52
2022/04/02 09:53:32;;;;;;;5.50;0.80;;;;;;;15.76;35.09;93613.28;5088765;28;20051;-51
2022/04/02 09:56:14;;;;;;;5.28;1.52;;;;;;;15.98;35.26;93623.84;5024687;28;20067;-51
2022/04/02 09:59:19;;;;;;;2.55;1.42;;;;;;;15.77;36.52;93628.75;5082238;28;20055;-51
2022/04/02 10:02:03;;;;;;;1.20;0.75;;;;;;;15.66;37.06;93604.50;5089403;28;20054;-49
2022/04/02 10:04:41;;;;;;;;;;;;;;;15.79;36.57;93570.66;5088904;28;20044;-50
2022/04/02 10:07:27;;;;;;;2.53;0.60;;;;;;;16.11;37.96;93575.00;5086794;28;19935;-49
2022/04/02 10:09:55;;;;;;;4.45;1.35;;;;;;;15.99;35.23;93587.84;5026114;28;20051;-51
2022/04/02 10:12:28;;;;;;;2.20;0.88;;;;;;;15.97;36.48;93596.03;5087748;28;20052;-47
2022/04/02 10:14:59;;;;;;;1.50;0.90;;;;;;;15.92;36.69;93597.97;5086495;28;20082;-50
2022/04/02 10:17:31;;;;;;;1.63;1.00;;;;;;;15.91;36.82;93591.19;5087618;28;20051;-48
2022/04/02 10:19:59;;;;;;;2.35;1.02;;;;;;;16.04;36.42;93590.38;5088815;28;20048;-50
2022/04/02 10:22:46;;;;;;;3.92;1.02;;;;;;;16.47;36.25;93576.81;5088545;28;20044;-48
2022/04/02 10:25:15;;;;;;;2.00;0.40;;;;;;;17.01;35.20;93579.53;5087133;28;20063;-50
2022/04/02 10:27:44;;;;;;;7.47;2.38;;;;;;;17.31;34.51;93577.97;5086161;28;20036;-47
2022/04/02 10:30:15;;;;;;;1.17;0.68;;;;;;;17.55;34.57;93567.06;5086844;28;20044;-50
2022/04/02 10:35:54;;;;;;;1.15;0.75;;;;;;;17.60;33.95;93589.84;5065273;28;20052;-52
2022/04/02 10:38:34;;;;;;;1.00;0.68;;;;;;;17.36;32.16;93554.16;5086088;28;20561;-48
2022/04/02 10:41:20;;;;;;;1.80;0.80;;;;;;;17.29;34.44;93538.03;5087350;28;20115;-50
2022/04/02 10:43:54;;;;;;;2.38;1.42;;;;;;;17.54;34.26;93541.84;5087230;28;20105;-49
2022/04/02 10:46:25;;;;;;;6.30;0.75;;;;;;;17.55;31.94;93532.06;5086785;28;20032;-49
2022/04/02 10:49:00;;;;;;;2.78;1.05;;;;;;;17.67;33.23;93534.88;5085395;28;20513;-46
2022/04/02 10:51:29;;;;;;;1.55;0.88;;;;;;;16.95;33.16;93542.06;5086269;28;20386;-47
2022/04/02 10:54:02;;;;;;;0.73;0.63;;;;;;;16.77;34.20;93553.53;5087191;28;20044;-47
2022/04/02 10:56:42;;;;;;;2.80;0.60;;;;;;;16.81;33.34;93550.00;5086610;28;20052;-50
2022/04/02 10:59:10;;;;;;;2.45;1.52;;;;;;;17.03;33.07;93539.78;5089059;28;20093;-49
2022/04/02 11:01:59;;;;;;;0.45;0.32;;;;;;;16.96;33.01;93522.59;5088646;28;20048;-49
2022/04/02 11:04:55;;;;;;;0.93;0.32;;;;;;;17.23;33.13;93528.72;5090272;28;20044;-52
2022/04/02 11:07:37;;;;;;;1.30;0.43;;;;;;;17.40;32.94;93522.75;5092702;28;20051;-48
2022/04/02 11:10:05;;;;;;;2.20;0.70;;;;;;;17.45;32.89;93556.03;5093127;28;20059;-48
2022/04/02 11:12:44;;;;;;;2.72;0.77;;;;;;;17.47;31.47;93544.13;5091088;28;20048;-51
2022/04/02 11:15:21;;;;;;;0.73;0.43;;;;;;;16.92;32.08;93534.75;5089332;28;20055;-46
2022/04/02 11:17:53;;;;;;;0.45;0.30;;;;;;;16.75;33.17;93534.66;5089248;28;20044;-45
2022/04/02 11:20:23;;;;;;;2.33;0.70;;;;;;;16.70;34.89;93542.66;5088791;28;20044;-47
2022/04/02 11:22:52;;;;;;;1.95;0.50;;;;;;;16.66;37.77;93560.91;5090530;28;20055;-48
2022/04/02 11:25:31;;;;;;;0.93;0.60;;;;;;;15.81;36.46;93553.56;5091413;28;20059;-49
2022/04/02 11:28:11;;;;;;;1.48;0.93;;;;;;;15.36;40.31;93566.50;5089511;28;20061;-50
2022/04/02 11:30:45;;;;;;;2.05;0.88;;;;;;;15.25;41.38;93567.75;5087813;28;20516;-49
2022/04/02 11:33:20;;;;;;;1.23;0.70;;;;;;;15.02;42.22;93557.16;5087957;28;20047;-51
2022/04/02 11:35:53;;;;;;;1.92;0.70;;;;;;;14.81;42.71;93561.19;5088324;28;20117;-48
2022/04/02 11:38:26;;;;;;;2.33;0.82;;;;;;;14.87;44.26;93578.38;5093169;28;20059;-46
2022/04/02 11:41:02;;;;;;;1.70;0.63;;;;;;;14.71;42.49;93588.31;5091120;28;20042;-47
2022/04/02 11:43:33;;;;;;;2.17;0.60;;;;;;;14.68;43.93;93584.44;5088769;28;20118;-47
2022/04/02 11:46:02;;;;;;;0.80;0.55;;;;;;;14.54;43.35;93589.59;5089603;28;20429;-46
2022/04/02 11:48:32;;;;;;;2.63;0.80;;;;;;;14.25;45.32;93587.16;5089274;28;20123;-47
2022/04/02 11:51:17;;;;;;;1.00;0.70;;;;;;;14.24;47.68;93575.13;5089018;28;20117;-49
2022/04/02 11:53:45;;;;;;;1.70;0.98;;;;;;;14.22;50.39;93587.69;5088735;28;20052;-48
2022/04/02 11:56:29;;;;;;;0.93;0.60;;;;;;;14.16;50.25;93604.56;5090275;28;20474;-47
2022/04/02 11:58:58;;;;;;;1.33;0.70;;;;;;;13.53;51.71;93635.13;5091097;28;20043;-52
2022/04/02 12:01:26;;;;;;;3.13;1.33;;;;;;;12.51;59.80;93620.31;5090856;28;20155;-49
2022/04/02 12:04:13;;;;;;;1.30;0.57;;;;;;;11.55;69.40;93610.09;5088847;28;20047;-47
2022/04/02 12:06:42;;;;;;;3.80;2.05;;;;;;;11.09;73.38;93644.84;5090259;28;20076;-49
2022/04/02 12:09:19;;;;;;;1.98;0.70;;;;;;;10.53;81.70;93632.63;5089803;28;20541;-49
2022/04/02 12:11:54;;;;;;;1.63;0.60;;;;;;;10.23;84.79;93680.19;5090820;28;20051;-50